Airfield :
LOGIN :

Register | Disclaimer

   EN    FR    IT 

 










Legend :    VFR   Marginal VFR   IFR   Intensive IFR   Very Intensive IFR
Visi :
Ceiling :
>= 8 km
>= 3000ft
5 to 8 km
1000 to 3000 ft
1500m to 5 km
500 to 1000 ft
800 to 1500m
200 to 500 ft
< 800m
< 200 ft
Symbols :   Thunderstorms  Fog  Heavy snow  Heavy precipitations  Wind > 20 kt
SIGMETs :     Misc.  Thunderstorms  Icing  Turbulence  Mountain Waves  Volcanic Ashes






- Airport Elevation : 242 ft
- IATA code : DUB


EIDW - Dublin

CURRENT METAR :
  • 282200Z 24011KT 190V280 9999 -RADZ FEW006 SCT010 BKN020 10/08 Q1002 TEMPO BKN010

EXPIRED METARs :
  • 282130Z 23008KT 190V260 9999 -RADZ FEW010 SCT014 BKN060 10/09 Q1002 TEMPO BKN010
  • 282100Z 23008KT 170V270 9999 -RADZ FEW010 SCT014 BKN060 10/09 Q1002 TEMPO BKN010
  • 282030Z 23008KT 170V260 9999 -RADZ FEW012 SCT034 BKN041 11/09 Q1003 TEMPO BKN010
  • 282000Z 24008KT 200V280 9999 -RADZ FEW010 SCT015 BKN036 11/09 Q1003 TEMPO BKN010
  • 281930Z 24011KT 200V280 9999 -RADZ FEW007 SCT014 BKN037 11/09 Q1003 TEMPO BKN010
  • 281900Z 22011KT 190V250 6000 -RADZ FEW007 SCT009 BKN012 12/11 Q1003 TEMPO BKN008
  • 281830Z 21010KT 150V260 8000 -RADZ FEW007 SCT009 BKN011 12/11 Q1003 TEMPO BKN008
  • 281800Z 22010KT 190V270 8000 -RADZ FEW009 SCT011 BKN013 12/11 Q1003 TEMPO BKN008
  • 281730Z 22011KT 180V260 9999 -DZ FEW009 SCT012 BKN015 12/11 Q1004 TEMPO BKN008

TAF TAF EIDW
Valid from the 28 at 18:00 until the 29 at 18:00 UTC


281700Z 2818/2918 23012KT 9999 SCT008 BKN011
TEMPO 2818/2824 4000 -RADZ BKN007
PROB40
TEMPO 2818/2821 22015G25KT
BECMG 2821/2823 26013KT FEW015 SCT030
TEMPO 2821/2902 25015G27KT -SHRA BKN012
BECMG 2903/2905 23010KT
TEMPO 2908/2918 24015G28KT -SHRA FEW018CB
PROB30
TEMPO 2912/2915 24021G32KT



MET'MAP, your aeronautical weather chart ! - Copyright ORBIFLY December 2007 - Disclaimer

ORBIFLY MET'MAP TEAM :

Programming & Development : Alexandra Zaïnal
Original concept : Baudouin d'Aumeries
Technical & hardware support : Manuel Goepfert
Assistance : Marc-Olivier Méhu




SOURCES & CREDITS :

   NOAA